RYR99PH LBSF-GMMX
Flight info
| Callsign | RYR99PH |
|---|---|
| Flight time | N/A |
| Altitude | 36000 |
| Route | NAPET T214 SIN DCT SKJ DCT ENFAR DCT VAKSU DCT AIOSA DCT LAT DCT GOKMI DCT SUPUX DCT KUPIM DCT SUXER DCT RIPAL DCT MORSS DCT MHN DCT CDP DCT LULAK DCT EDULI DCT OKITI DCT IBEBA DCT BAVER DCT GERVU DCT ALT DCT RESTU DCT DOSEK DCT AMR N860 BERUM UG850 FES UM372 BML UQ401 RUBAB UL102 AGOVA UH400 ABDOR UM372 KUDAX |
| Aircraft | B738/M-SDE2E3FGHIRWXY/LB1 |
Departure
| Time | 2026-05-01 12:58 |
|---|---|
| Airport | Sofia Airport (LBSF) |
Arrival
| Time | N/A |
|---|---|
| Airport | Marrakesh Menara Airport (GMMX) |
| Time | Latitude | Longitude | Altitude | Speed | Heading |
|---|---|---|---|---|---|
| 2026-05-01 12:19 | 42.68976 | 23.40850 | 1748 ft | 0 kts | 162° |
| 2026-05-01 12:52 | 42.68958 | 23.40858 | 1741 ft | 4 kts | 161° |
| 2026-05-01 12:52 | 42.68933 | 23.40864 | 1746 ft | 4 kts | 190° |
| 2026-05-01 12:53 | 42.68919 | 23.40797 | 1744 ft | 5 kts | 283° |
| 2026-05-01 12:53 | 42.68934 | 23.40734 | 1741 ft | 9 kts | 290° |
| 2026-05-01 12:53 | 42.68956 | 23.40636 | 1745 ft | 13 kts | 285° |
| 2026-05-01 12:54 | 42.68984 | 23.40497 | 1748 ft | 18 kts | 286° |
| 2026-05-01 12:54 | 42.69068 | 23.40113 | 1748 ft | 21 kts | 287° |
| 2026-05-01 12:54 | 42.69099 | 23.39918 | 1744 ft | 21 kts | 284° |
| 2026-05-01 12:55 | 42.69186 | 23.39555 | 1744 ft | 20 kts | 307° |
| 2026-05-01 12:55 | 42.69299 | 23.39547 | 1747 ft | 16 kts | 5° |
| 2026-05-01 12:55 | 42.69409 | 23.39562 | 1744 ft | 16 kts | 6° |
| 2026-05-01 12:56 | 42.69515 | 23.39578 | 1739 ft | 15 kts | 6° |
| 2026-05-01 12:56 | 42.69616 | 23.39591 | 1744 ft | 14 kts | 5° |
| 2026-05-01 12:56 | 42.69713 | 23.39601 | 1748 ft | 14 kts | 4° |
| 2026-05-01 12:56 | 42.69770 | 23.39682 | 1740 ft | 13 kts | 84° |
| 2026-05-01 12:57 | 42.69764 | 23.39804 | 1749 ft | 13 kts | 94° |
| 2026-05-01 12:57 | 42.69750 | 23.40052 | 1748 ft | 24 kts | 94° |
| 2026-05-01 12:57 | 42.69716 | 23.40639 | 1745 ft | 100 kts | 95° |
| 2026-05-01 12:58 | 42.69670 | 23.41880 | 1773 ft | 160 kts | 85° |
| 2026-05-01 12:58 | 42.69635 | 23.43493 | 2317 ft | 179 kts | 89° |
| 2026-05-01 12:58 | 42.69524 | 23.45249 | 3029 ft | 193 kts | 94° |
| 2026-05-01 12:59 | 42.68731 | 23.48681 | 4716 ft | 202 kts | 134° |
| 2026-05-01 12:59 | 42.67434 | 23.49558 | 5216 ft | 219 kts | 162° |
| 2026-05-01 12:59 | 42.64513 | 23.48281 | 6528 ft | 230 kts | 220° |
| 2026-05-01 13:00 | 42.62099 | 23.45110 | 7483 ft | 246 kts | 225° |
| 2026-05-01 13:00 | 42.60962 | 23.43389 | 8176 ft | 247 kts | 229° |
| 2026-05-01 13:01 | 42.58765 | 23.39755 | 9402 ft | 250 kts | 230° |
| 2026-05-01 13:01 | 42.57658 | 23.37916 | 10009 ft | 253 kts | 230° |
| 2026-05-01 13:01 | 42.55403 | 23.34197 | 11170 ft | 256 kts | 230° |
| 2026-05-01 13:02 | 42.54266 | 23.32331 | 11746 ft | 257 kts | 231° |
| 2026-05-01 13:07 | 42.21982 | 22.80192 | 22155 ft | 397 kts | 232° |
| 2026-05-01 13:07 | 42.20196 | 22.77335 | 22660 ft | 400 kts | 232° |
| 2026-05-01 13:07 | 42.18416 | 22.74490 | 23070 ft | 405 kts | 231° |
| 2026-05-01 13:08 | 42.16593 | 22.71580 | 23564 ft | 407 kts | 232° |
| 2026-05-01 13:08 | 42.14760 | 22.68659 | 24050 ft | 408 kts | 232° |
| 2026-05-01 13:08 | 42.12924 | 22.65732 | 24459 ft | 411 kts | 233° |
| 2026-05-01 13:08 | 42.11075 | 22.62790 | 24889 ft | 412 kts | 231° |
| 2026-05-01 13:09 | 42.09250 | 22.59808 | 25290 ft | 413 kts | 235° |
| 2026-05-01 13:09 | 42.07628 | 22.56614 | 25722 ft | 413 kts | 239° |
| 2026-05-01 13:09 | 42.06094 | 22.53332 | 26034 ft | 417 kts | 240° |
| 2026-05-01 13:09 | 42.04576 | 22.50053 | 26354 ft | 420 kts | 240° |
| 2026-05-01 13:10 | 42.03008 | 22.46737 | 26816 ft | 420 kts | 239° |
| 2026-05-01 13:10 | 42.01419 | 22.43435 | 27152 ft | 423 kts | 238° |
| 2026-05-01 13:10 | 41.99828 | 22.40072 | 27334 ft | 429 kts | 242° |
| 2026-05-01 13:10 | 41.98611 | 22.36427 | 27794 ft | 425 kts | 252° |
| 2026-05-01 13:11 | 41.97839 | 22.32609 | 28207 ft | 425 kts | 261° |
| 2026-05-01 13:11 | 41.97501 | 22.28655 | 28449 ft | 428 kts | 266° |
| 2026-05-01 13:11 | 41.97281 | 22.24653 | 28734 ft | 431 kts | 267° |
| 2026-05-01 13:11 | 41.97076 | 22.20676 | 29062 ft | 433 kts | 267° |
| 2026-05-01 13:12 | 41.96861 | 22.16638 | 29406 ft | 434 kts | 266° |
| 2026-05-01 13:12 | 41.96633 | 22.12581 | 29707 ft | 437 kts | 266° |
| 2026-05-01 13:12 | 41.96392 | 22.08503 | 29960 ft | 440 kts | 266° |
| 2026-05-01 13:12 | 41.96141 | 22.04399 | 30269 ft | 441 kts | 266° |
| 2026-05-01 13:13 | 41.95887 | 22.00311 | 30689 ft | 438 kts | 266° |
| 2026-05-01 13:13 | 41.95631 | 21.96244 | 31085 ft | 436 kts | 266° |
| 2026-05-01 13:13 | 41.95374 | 21.92177 | 31343 ft | 437 kts | 266° |
| 2026-05-01 13:13 | 41.95115 | 21.88103 | 31608 ft | 438 kts | 266° |
| 2026-05-01 13:14 | 41.94859 | 21.84085 | 31960 ft | 437 kts | 266° |
| 2026-05-01 13:14 | 41.94599 | 21.80037 | 32347 ft | 434 kts | 266° |
| 2026-05-01 13:14 | 41.94340 | 21.76000 | 32633 ft | 435 kts | 266° |
| 2026-05-01 13:14 | 41.94078 | 21.71945 | 32849 ft | 436 kts | 266° |
| 2026-05-01 13:15 | 41.93814 | 21.67886 | 33153 ft | 436 kts | 266° |
| 2026-05-01 13:15 | 41.93548 | 21.63848 | 33572 ft | 432 kts | 265° |
| 2026-05-01 13:15 | 41.93136 | 21.59880 | 34096 ft | 427 kts | 261° |
| 2026-05-01 13:15 | 41.92581 | 21.55976 | 34390 ft | 426 kts | 260° |
| 2026-05-01 13:16 | 41.91978 | 21.52071 | 34528 ft | 428 kts | 259° |
| 2026-05-01 13:16 | 41.91363 | 21.48152 | 34683 ft | 430 kts | 259° |
| 2026-05-01 13:16 | 41.90762 | 21.44287 | 34931 ft | 428 kts | 260° |
| 2026-05-01 13:17 | 41.88988 | 21.32572 | 35585 ft | 427 kts | 260° |
| 2026-05-01 13:17 | 41.88403 | 21.28656 | 35744 ft | 428 kts | 260° |
| 2026-05-01 13:18 | 41.87235 | 21.20848 | 36190 ft | 426 kts | 260° |
| 2026-05-01 13:18 | 41.86648 | 21.16934 | 36195 ft | 429 kts | 260° |
| 2026-05-01 13:18 | 41.85472 | 21.09133 | 36216 ft | 429 kts | 260° |
| 2026-05-01 13:19 | 41.84286 | 21.01318 | 36222 ft | 427 kts | 260° |
| 2026-05-01 13:20 | 41.82507 | 20.89650 | 36214 ft | 424 kts | 260° |
| 2026-05-01 13:20 | 41.81321 | 20.81918 | 36207 ft | 423 kts | 260° |
| 2026-05-01 13:21 | 41.79548 | 20.70422 | 36204 ft | 421 kts | 260° |
| 2026-05-01 13:21 | 41.78357 | 20.62737 | 36208 ft | 421 kts | 260° |
| 2026-05-01 13:22 | 41.77292 | 20.55023 | 36178 ft | 420 kts | 267° |
| 2026-05-01 13:22 | 41.77606 | 20.47299 | 36194 ft | 419 kts | 280° |
| 2026-05-01 13:23 | 41.78644 | 20.39592 | 36181 ft | 422 kts | 281° |
| 2026-05-01 13:23 | 41.79689 | 20.31831 | 36148 ft | 425 kts | 281° |
| 2026-05-01 13:24 | 41.80711 | 20.24031 | 36164 ft | 426 kts | 280° |
| 2026-05-01 13:25 | 41.82212 | 20.12333 | 36136 ft | 427 kts | 280° |
| 2026-05-01 13:25 | 41.83208 | 20.04488 | 36139 ft | 427 kts | 280° |
| 2026-05-01 13:26 | 41.84200 | 19.96642 | 36143 ft | 427 kts | 280° |
| 2026-05-01 13:26 | 41.85187 | 19.88789 | 36141 ft | 427 kts | 280° |
| 2026-05-01 13:27 | 41.86160 | 19.81003 | 36145 ft | 426 kts | 280° |
| 2026-05-01 13:27 | 41.87616 | 19.69274 | 36152 ft | 424 kts | 280° |
| 2026-05-01 13:28 | 41.89055 | 19.57578 | 36129 ft | 423 kts | 280° |
| 2026-05-01 13:29 | 41.90940 | 19.42095 | 36124 ft | 422 kts | 280° |
| 2026-05-01 13:31 | 41.93747 | 19.18714 | 36145 ft | 425 kts | 280° |
| 2026-05-01 13:32 | 41.96068 | 18.99049 | 36140 ft | 430 kts | 280° |
| 2026-05-01 13:33 | 41.98382 | 18.79140 | 36147 ft | 432 kts | 280° |
| 2026-05-01 13:34 | 42.00210 | 18.63202 | 36148 ft | 433 kts | 280° |
| 2026-05-01 13:35 | 42.01184 | 18.54535 | 36145 ft | 434 kts | 278° |
| 2026-05-01 13:35 | 42.01149 | 18.47003 | 36161 ft | 436 kts | 267° |
| 2026-05-01 13:36 | 42.00877 | 18.43000 | 36146 ft | 436 kts | 266° |
| 2026-05-01 13:36 | 42.00039 | 18.30824 | 36150 ft | 436 kts | 267° |
| 2026-05-01 13:37 | 41.99508 | 18.22707 | 36287 ft | 435 kts | 267° |
| 2026-05-01 13:37 | 41.99246 | 18.18652 | 36429 ft | 437 kts | 267° |
| 2026-05-01 13:37 | 41.98982 | 18.14576 | 36555 ft | 438 kts | 267° |
| 2026-05-01 13:38 | 41.98454 | 18.06476 | 36950 ft | 436 kts | 267° |
| 2026-05-01 13:38 | 41.98189 | 18.02447 | 37173 ft | 435 kts | 267° |
| 2026-05-01 13:39 | 41.97651 | 17.94327 | 37148 ft | 435 kts | 267° |
| 2026-05-01 13:39 | 41.97109 | 17.86261 | 37157 ft | 432 kts | 267° |
| 2026-05-01 13:40 | 41.96565 | 17.78242 | 37154 ft | 430 kts | 267° |
| 2026-05-01 13:40 | 41.96019 | 17.70272 | 37152 ft | 428 kts | 267° |
| 2026-05-01 13:41 | 41.95473 | 17.62377 | 37163 ft | 427 kts | 267° |
| 2026-05-01 13:41 | 41.94918 | 17.54424 | 37174 ft | 428 kts | 267° |
| 2026-05-01 13:42 | 41.94355 | 17.46437 | 37182 ft | 431 kts | 267° |
| 2026-05-01 13:42 | 41.93782 | 17.38409 | 37166 ft | 433 kts | 267° |
| 2026-05-01 13:43 | 41.93202 | 17.30329 | 37185 ft | 436 kts | 267° |
| 2026-05-01 13:43 | 41.92617 | 17.22263 | 37187 ft | 438 kts | 267° |
| 2026-05-01 13:44 | 41.92037 | 17.14096 | 37193 ft | 440 kts | 267° |
| 2026-05-01 13:44 | 41.91454 | 17.05903 | 37181 ft | 441 kts | 266° |
| 2026-05-01 13:45 | 41.90864 | 16.97708 | 37193 ft | 441 kts | 267° |
| 2026-05-01 13:45 | 41.90268 | 16.89532 | 37202 ft | 439 kts | 267° |
| 2026-05-01 13:46 | 41.89672 | 16.81437 | 37195 ft | 438 kts | 267° |
| 2026-05-01 13:46 | 41.89069 | 16.73320 | 37212 ft | 436 kts | 266° |
| 2026-05-01 13:47 | 41.88462 | 16.65234 | 37193 ft | 435 kts | 267° |
| 2026-05-01 13:47 | 41.87851 | 16.57173 | 37204 ft | 434 kts | 267° |
| 2026-05-01 13:48 | 41.87241 | 16.49182 | 37219 ft | 433 kts | 267° |
| 2026-05-01 13:48 | 41.86620 | 16.41140 | 37223 ft | 433 kts | 266° |
| 2026-05-01 13:49 | 41.85993 | 16.33091 | 37189 ft | 434 kts | 266° |
| 2026-05-01 13:49 | 41.85360 | 16.25032 | 37215 ft | 435 kts | 266° |
| 2026-05-01 13:50 | 41.84719 | 16.16945 | 37228 ft | 437 kts | 266° |
| 2026-05-01 13:50 | 41.84074 | 16.08885 | 37232 ft | 438 kts | 266° |
| 2026-05-01 13:51 | 41.83416 | 16.00740 | 37233 ft | 440 kts | 266° |
| 2026-05-01 13:51 | 41.82751 | 15.92571 | 37235 ft | 441 kts | 266° |
| 2026-05-01 13:52 | 41.82078 | 15.84396 | 37247 ft | 442 kts | 266° |
| 2026-05-01 13:52 | 41.81403 | 15.76254 | 37238 ft | 443 kts | 266° |
| 2026-05-01 13:53 | 41.80717 | 15.68056 | 37242 ft | 442 kts | 266° |
| 2026-05-01 13:53 | 41.79679 | 15.55782 | 37238 ft | 442 kts | 266° |
| 2026-05-01 13:54 | 41.78980 | 15.47607 | 37254 ft | 441 kts | 266° |
| 2026-05-01 13:54 | 41.78277 | 15.39452 | 37259 ft | 441 kts | 266° |
| 2026-05-01 13:55 | 41.77581 | 15.31440 | 37263 ft | 440 kts | 266° |
| 2026-05-01 13:55 | 41.76867 | 15.23305 | 37256 ft | 439 kts | 266° |
| 2026-05-01 13:56 | 41.76150 | 15.15179 | 37259 ft | 439 kts | 267° |
| 2026-05-01 13:56 | 41.75426 | 15.07060 | 37270 ft | 439 kts | 266° |
| 2026-05-01 13:57 | 41.74703 | 14.98999 | 37280 ft | 439 kts | 266° |
| 2026-05-01 13:57 | 41.73967 | 14.90878 | 37248 ft | 440 kts | 267° |
| 2026-05-01 13:58 | 41.73226 | 14.82749 | 37263 ft | 440 kts | 267° |
| 2026-05-01 13:58 | 41.72478 | 14.74607 | 37272 ft | 441 kts | 266° |
| 2026-05-01 13:59 | 41.71728 | 14.66497 | 37257 ft | 442 kts | 267° |
| 2026-05-01 13:59 | 41.70962 | 14.58331 | 37255 ft | 443 kts | 266° |
| 2026-05-01 14:00 | 41.70189 | 14.50140 | 37268 ft | 444 kts | 267° |
| 2026-05-01 14:00 | 41.69412 | 14.41940 | 37263 ft | 444 kts | 266° |
| 2026-05-01 14:01 | 41.68629 | 14.33755 | 37252 ft | 443 kts | 267° |
| 2026-05-01 14:01 | 41.67848 | 14.25650 | 37254 ft | 442 kts | 266° |
| 2026-05-01 14:02 | 41.67059 | 14.17519 | 37233 ft | 440 kts | 266° |
| 2026-05-01 14:02 | 41.66264 | 14.09433 | 37240 ft | 438 kts | 266° |
| 2026-05-01 14:03 | 41.65473 | 14.01380 | 37226 ft | 436 kts | 266° |
| 2026-05-01 14:03 | 41.64675 | 13.93339 | 37238 ft | 436 kts | 266° |
| 2026-05-01 14:04 | 41.63878 | 13.85357 | 37189 ft | 437 kts | 266° |
| 2026-05-01 14:04 | 41.63206 | 13.78672 | 37220 ft | 437 kts | 266° |
| 2026-05-01 14:05 | 41.62251 | 13.69247 | 37217 ft | 439 kts | 266° |
| 2026-05-01 14:05 | 41.61424 | 13.61149 | 37210 ft | 441 kts | 266° |
| 2026-05-01 14:06 | 41.60593 | 13.53067 | 37204 ft | 443 kts | 266° |
| 2026-05-01 14:06 | 41.59747 | 13.44907 | 37194 ft | 443 kts | 267° |
| 2026-05-01 14:07 | 41.58896 | 13.36752 | 37199 ft | 443 kts | 267° |
| 2026-05-01 14:08 | 41.57611 | 13.24547 | 37193 ft | 442 kts | 267° |
| 2026-05-01 14:08 | 41.56755 | 13.16487 | 37205 ft | 441 kts | 267° |
| 2026-05-01 14:09 | 41.55889 | 13.08383 | 37192 ft | 439 kts | 268° |
| 2026-05-01 14:09 | 41.55024 | 13.00334 | 37193 ft | 437 kts | 268° |
| 2026-05-01 14:10 | 41.54150 | 12.92319 | 37185 ft | 436 kts | 266° |
| 2026-05-01 14:10 | 41.52690 | 12.84430 | 37192 ft | 439 kts | 260° |
| 2026-05-01 14:11 | 41.50965 | 12.76676 | 37147 ft | 438 kts | 260° |
| 2026-05-01 14:11 | 41.48391 | 12.65010 | 37185 ft | 437 kts | 261° |
| 2026-05-01 14:12 | 41.46706 | 12.57211 | 37192 ft | 438 kts | 261° |
| 2026-05-01 14:12 | 41.45030 | 12.49428 | 37193 ft | 441 kts | 261° |
| 2026-05-01 14:13 | 41.43604 | 12.42833 | 37197 ft | 443 kts | 261° |
| 2026-05-01 14:13 | 41.41609 | 12.33643 | 37186 ft | 445 kts | 261° |
| 2026-05-01 14:14 | 41.39878 | 12.25703 | 37193 ft | 447 kts | 261° |
| 2026-05-01 14:14 | 41.38134 | 12.17738 | 37200 ft | 449 kts | 261° |
| 2026-05-01 14:15 | 41.36394 | 12.09819 | 37198 ft | 449 kts | 261° |
| 2026-05-01 14:15 | 41.34636 | 12.01846 | 37164 ft | 447 kts | 260° |
| 2026-05-01 14:16 | 41.32894 | 11.94001 | 37184 ft | 438 kts | 260° |
| 2026-05-01 14:16 | 41.31173 | 11.86252 | 37207 ft | 436 kts | 260° |
| 2026-05-01 14:17 | 41.29452 | 11.78519 | 37210 ft | 436 kts | 260° |
| 2026-05-01 14:17 | 41.27739 | 11.70852 | 37213 ft | 436 kts | 260° |
| 2026-05-01 14:18 | 41.26009 | 11.63136 | 37216 ft | 435 kts | 260° |
| 2026-05-01 14:18 | 41.24566 | 11.56725 | 37211 ft | 436 kts | 260° |
| 2026-05-01 14:19 | 41.22526 | 11.47693 | 37218 ft | 437 kts | 260° |
| 2026-05-01 14:19 | 41.20783 | 11.40009 | 37201 ft | 438 kts | 259° |
| 2026-05-01 14:20 | 41.18139 | 11.28405 | 37194 ft | 437 kts | 259° |
| 2026-05-01 14:21 | 41.16378 | 11.20711 | 37211 ft | 435 kts | 259° |
| 2026-05-01 14:21 | 41.14634 | 11.13117 | 37223 ft | 432 kts | 259° |
| 2026-05-01 14:22 | 41.12007 | 11.01721 | 37221 ft | 429 kts | 259° |
| 2026-05-01 14:22 | 41.10261 | 10.94180 | 37226 ft | 427 kts | 259° |
| 2026-05-01 14:23 | 41.08516 | 10.86666 | 37232 ft | 426 kts | 259° |
| 2026-05-01 14:23 | 41.06784 | 10.79231 | 37234 ft | 425 kts | 259° |
| 2026-05-01 14:24 | 41.05038 | 10.71758 | 37234 ft | 424 kts | 259° |
| 2026-05-01 14:24 | 41.03288 | 10.64296 | 37231 ft | 424 kts | 259° |
| 2026-05-01 14:25 | 41.01533 | 10.56842 | 37213 ft | 424 kts | 259° |
| 2026-05-01 14:25 | 40.99778 | 10.49410 | 37227 ft | 423 kts | 259° |
| 2026-05-01 14:26 | 40.97152 | 10.38331 | 37243 ft | 422 kts | 259° |
| 2026-05-01 14:27 | 40.95390 | 10.30928 | 37243 ft | 422 kts | 259° |
| 2026-05-01 14:27 | 40.93624 | 10.23530 | 37250 ft | 422 kts | 258° |
| 2026-05-01 14:28 | 40.90979 | 10.12501 | 37240 ft | 421 kts | 258° |
| 2026-05-01 14:28 | 40.89207 | 10.05140 | 37242 ft | 420 kts | 258° |
| 2026-05-01 14:29 | 40.87435 | 9.97798 | 37248 ft | 419 kts | 258° |
| 2026-05-01 14:30 | 40.83899 | 9.83224 | 37227 ft | 417 kts | 258° |
| 2026-05-01 14:31 | 40.81239 | 9.72322 | 37261 ft | 415 kts | 257° |
| 2026-05-01 14:31 | 40.79465 | 9.65074 | 37262 ft | 415 kts | 257° |
| 2026-05-01 14:32 | 40.77685 | 9.57828 | 37248 ft | 415 kts | 257° |
| 2026-05-01 14:32 | 40.75911 | 9.50624 | 37243 ft | 416 kts | 257° |
| 2026-05-01 14:33 | 40.74119 | 9.43372 | 37208 ft | 416 kts | 256° |
| 2026-05-01 14:33 | 40.72322 | 9.36123 | 37234 ft | 417 kts | 256° |
| 2026-05-01 14:34 | 40.70516 | 9.28861 | 37237 ft | 418 kts | 256° |
| 2026-05-01 14:34 | 40.68712 | 9.21630 | 37229 ft | 419 kts | 256° |
| 2026-05-01 14:35 | 40.66887 | 9.14333 | 37234 ft | 420 kts | 256° |
| 2026-05-01 14:35 | 40.65054 | 9.07031 | 37206 ft | 420 kts | 256° |
| 2026-05-01 14:36 | 40.63214 | 8.99720 | 37219 ft | 421 kts | 255° |
| 2026-05-01 14:36 | 40.61381 | 8.92460 | 37210 ft | 421 kts | 255° |
| 2026-05-01 14:37 | 40.59529 | 8.85149 | 37214 ft | 421 kts | 255° |
| 2026-05-01 14:37 | 40.57677 | 8.77856 | 37203 ft | 420 kts | 255° |
| 2026-05-01 14:38 | 40.55822 | 8.70576 | 37184 ft | 420 kts | 255° |
| 2026-05-01 14:38 | 40.53965 | 8.63312 | 37196 ft | 419 kts | 255° |
| 2026-05-01 14:39 | 40.52121 | 8.56114 | 37195 ft | 418 kts | 255° |
| 2026-05-01 14:39 | 40.50264 | 8.48892 | 37195 ft | 417 kts | 255° |
| 2026-05-01 14:40 | 40.48404 | 8.41676 | 37193 ft | 417 kts | 255° |
| 2026-05-01 14:40 | 40.46541 | 8.34468 | 37187 ft | 416 kts | 255° |
| 2026-05-01 14:41 | 40.44690 | 8.27326 | 37186 ft | 416 kts | 254° |
| 2026-05-01 14:41 | 40.43505 | 8.19978 | 37187 ft | 410 kts | 268° |
| 2026-05-01 14:42 | 40.43166 | 8.12505 | 37193 ft | 410 kts | 268° |
| 2026-05-01 14:42 | 40.42781 | 8.05033 | 37194 ft | 411 kts | 268° |
| 2026-05-01 14:43 | 40.42278 | 7.97559 | 37201 ft | 412 kts | 264° |
| 2026-05-01 14:43 | 40.41340 | 7.90180 | 37207 ft | 413 kts | 262° |
| 2026-05-01 14:44 | 40.40330 | 7.82753 | 37210 ft | 414 kts | 262° |
| 2026-05-01 14:44 | 40.38866 | 7.71581 | 37213 ft | 415 kts | 262° |
| 2026-05-01 14:45 | 40.37422 | 7.60428 | 37212 ft | 416 kts | 262° |
| 2026-05-01 14:46 | 40.36449 | 7.52953 | 37210 ft | 416 kts | 262° |
| 2026-05-01 14:46 | 40.34978 | 7.41739 | 37215 ft | 416 kts | 262° |
| 2026-05-01 14:47 | 40.33992 | 7.34264 | 37215 ft | 416 kts | 262° |
| 2026-05-01 14:48 | 40.32515 | 7.23103 | 37214 ft | 416 kts | 262° |
| 2026-05-01 14:48 | 40.31037 | 7.11912 | 37220 ft | 415 kts | 262° |
| 2026-05-01 14:49 | 40.29058 | 6.97061 | 37220 ft | 415 kts | 262° |
| 2026-05-01 14:50 | 40.27057 | 6.82199 | 37203 ft | 414 kts | 261° |
| 2026-05-01 14:51 | 40.25546 | 6.71079 | 37216 ft | 413 kts | 261° |
| 2026-05-01 14:52 | 40.24032 | 6.60021 | 37221 ft | 413 kts | 261° |
| 2026-05-01 14:53 | 40.22502 | 6.48925 | 37233 ft | 413 kts | 261° |
| 2026-05-01 14:53 | 40.21476 | 6.41526 | 37217 ft | 413 kts | 260° |
| 2026-05-01 14:54 | 40.20451 | 6.34174 | 37224 ft | 414 kts | 260° |
| 2026-05-01 14:54 | 40.19413 | 6.26766 | 37221 ft | 414 kts | 260° |
| 2026-05-01 14:55 | 40.18370 | 6.19353 | 37224 ft | 415 kts | 260° |
| 2026-05-01 14:55 | 40.17320 | 6.11929 | 37230 ft | 415 kts | 260° |
| 2026-05-01 14:56 | 40.16263 | 6.04495 | 37218 ft | 416 kts | 259° |
| 2026-05-01 14:56 | 40.15207 | 5.97099 | 37221 ft | 417 kts | 259° |
| 2026-05-01 14:57 | 40.14140 | 5.89649 | 37230 ft | 417 kts | 259° |
| 2026-05-01 14:57 | 40.12544 | 5.78458 | 37228 ft | 418 kts | 260° |
| 2026-05-01 14:58 | 40.11492 | 5.70987 | 37219 ft | 418 kts | 260° |
| 2026-05-01 14:58 | 40.10442 | 5.63569 | 37226 ft | 418 kts | 259° |
| 2026-05-01 14:59 | 40.09378 | 5.56106 | 37225 ft | 418 kts | 259° |
| 2026-05-01 14:59 | 40.08310 | 5.48654 | 37225 ft | 417 kts | 259° |
| 2026-05-01 15:00 | 40.06703 | 5.37504 | 37225 ft | 416 kts | 259° |
| 2026-05-01 15:01 | 40.05635 | 5.30135 | 37214 ft | 416 kts | 259° |
| 2026-05-01 15:01 | 40.04555 | 5.22723 | 37222 ft | 415 kts | 259° |
| 2026-05-01 15:02 | 40.03471 | 5.15315 | 37228 ft | 416 kts | 259° |
| 2026-05-01 15:02 | 40.02382 | 5.07911 | 37222 ft | 416 kts | 259° |
| 2026-05-01 15:03 | 40.01296 | 5.00554 | 37226 ft | 416 kts | 258° |
| 2026-05-01 15:03 | 40.00196 | 4.93140 | 37214 ft | 417 kts | 258° |
| 2026-05-01 15:04 | 39.99089 | 4.85708 | 37226 ft | 417 kts | 258° |
| 2026-05-01 15:04 | 39.97976 | 4.78275 | 37219 ft | 418 kts | 258° |
| 2026-05-01 15:05 | 39.96608 | 4.70955 | 37219 ft | 419 kts | 254° |
| 2026-05-01 15:05 | 39.95072 | 4.63621 | 37219 ft | 420 kts | 255° |
| 2026-05-01 15:06 | 39.93559 | 4.56269 | 37211 ft | 420 kts | 255° |
| 2026-05-01 15:06 | 39.92051 | 4.48914 | 37215 ft | 421 kts | 255° |
| 2026-05-01 15:07 | 39.90536 | 4.41551 | 37213 ft | 421 kts | 254° |
| 2026-05-01 15:07 | 39.89025 | 4.34242 | 37213 ft | 421 kts | 254° |
| 2026-05-01 15:08 | 39.87499 | 4.26885 | 37215 ft | 421 kts | 254° |
| 2026-05-01 15:08 | 39.85967 | 4.19530 | 37213 ft | 421 kts | 254° |
| 2026-05-01 15:09 | 39.84429 | 4.12178 | 37208 ft | 421 kts | 254° |
| 2026-05-01 15:09 | 39.82897 | 4.04877 | 37217 ft | 421 kts | 254° |
| 2026-05-01 15:10 | 39.81352 | 3.97537 | 37211 ft | 421 kts | 254° |
| 2026-05-01 15:10 | 39.79028 | 3.86539 | 37207 ft | 420 kts | 254° |
| 2026-05-01 15:11 | 39.76695 | 3.75555 | 37203 ft | 420 kts | 253° |
| 2026-05-01 15:12 | 39.75145 | 3.68286 | 37211 ft | 420 kts | 253° |
| 2026-05-01 15:12 | 39.72794 | 3.57309 | 37209 ft | 420 kts | 253° |
| 2026-05-01 15:14 | 39.68685 | 3.39137 | 37212 ft | 421 kts | 249° |
| 2026-05-01 15:14 | 39.65597 | 3.28474 | 37204 ft | 421 kts | 249° |
| 2026-05-01 15:15 | 39.61518 | 3.14280 | 37198 ft | 421 kts | 249° |
| 2026-05-01 15:16 | 39.57436 | 3.00026 | 37192 ft | 422 kts | 249° |
| 2026-05-01 15:18 | 39.52311 | 2.82242 | 37195 ft | 424 kts | 249° |
| 2026-05-01 15:19 | 39.48536 | 2.69121 | 37181 ft | 425 kts | 249° |
| 2026-05-01 15:19 | 39.45434 | 2.58368 | 37184 ft | 425 kts | 249° |
| 2026-05-01 15:20 | 39.42325 | 2.47635 | 37188 ft | 424 kts | 249° |
| 2026-05-01 15:21 | 39.40249 | 2.40498 | 37185 ft | 424 kts | 249° |
| 2026-05-01 15:21 | 39.38172 | 2.33419 | 37184 ft | 424 kts | 249° |
| 2026-05-01 15:22 | 39.35033 | 2.22761 | 37183 ft | 423 kts | 250° |
| 2026-05-01 15:22 | 39.32937 | 2.15662 | 37179 ft | 423 kts | 250° |
| 2026-05-01 15:23 | 39.30855 | 2.08627 | 37183 ft | 422 kts | 250° |
| 2026-05-01 15:23 | 39.28757 | 2.01555 | 37187 ft | 422 kts | 250° |
| 2026-05-01 15:24 | 39.26654 | 1.94486 | 37185 ft | 422 kts | 250° |
| 2026-05-01 15:24 | 39.24547 | 1.87420 | 37189 ft | 422 kts | 250° |
| 2026-05-01 15:25 | 39.22438 | 1.80368 | 37186 ft | 422 kts | 250° |
| 2026-05-01 15:25 | 39.20340 | 1.73368 | 37186 ft | 421 kts | 250° |
| 2026-05-01 15:26 | 39.18222 | 1.66323 | 37188 ft | 421 kts | 250° |
| 2026-05-01 15:26 | 39.16104 | 1.59293 | 37187 ft | 421 kts | 250° |
| 2026-05-01 15:27 | 39.13981 | 1.52265 | 37187 ft | 421 kts | 251° |
| 2026-05-01 15:28 | 39.10807 | 1.41791 | 37174 ft | 420 kts | 251° |
| 2026-05-01 15:28 | 39.08685 | 1.34801 | 37182 ft | 419 kts | 251° |
| 2026-05-01 15:29 | 39.05504 | 1.24344 | 37186 ft | 418 kts | 251° |
| 2026-05-01 15:30 | 39.01259 | 1.10450 | 37184 ft | 416 kts | 251° |
| 2026-05-01 15:31 | 38.94901 | 0.89770 | 37185 ft | 415 kts | 251° |
| 2026-05-01 15:32 | 38.90654 | 0.76049 | 37178 ft | 415 kts | 251° |
| 2026-05-01 15:34 | 38.84225 | 0.55409 | 37192 ft | 416 kts | 250° |